Latest Coastal Weather Observations for Low Rocky Point

IDT60701

Issued at 2:42 pm EST Saturday 5 September 2026 (issued every 10 minutes, with the page automatically refreshed every 10 minutes)

About coastal observations | Map of coastal stations | Coastal observations for TAS | Marine services | Other Formats
Station Details ID: 097080 Name: LOW ROCKY POINT Lat: -42.98 Lon: 145.50 Height: 34.0 m
Data from the previous 72 hours. | See also: Recent months at Low Rocky Point
Date/Time
EST
Wind Sea
Height
m
Swell Vis
km
Cloud Weather Temp
°C
Press
MSL
hPa
Rain since
9am
mm
Dir  Spd
kts
Gust
kts
Height
m
Period
s
Dir
05/02:30pm ESE 8 10 - - - - - - - 11.6 994.3 27.8
05/02:00pm ESE 7 9 - - - - - - - 11.5 994.3 25.8
05/01:30pm ESE 6 7 - - - - - - - 11.6 994.4 20.8
05/01:00pm SE 7 9 - - - - - - - 11.6 994.4 16.6
05/12:46pm ESE 8 9 - - - - - - - 11.6 994.4 15.0
05/12:36pm NE 4 7 - - - - - - - 11.8 995.0 11.8
05/12:30pm ENE 5 10 - - - - - - - 11.9 995.2 7.0
05/12:27pm E 6 12 - - - - - - - 11.9 995.0 6.6
05/12:06pm ESE 12 16 - - - - - - - 12.0 994.2 5.2
05/12:00pm ESE 14 19 - - - - - - Thunderstorm 12.0 994.2 5.2
05/11:30am ESE 15 19 - - - - - - - 11.8 995.2 5.2
05/11:00am ESE 12 16 - - - - - - - 11.9 996.1 5.2
05/10:30am E 10 13 - - - - - - - 11.7 997.3 4.4
05/10:00am SE 9 11 - - - - - - - 11.8 998.1 3.4
05/09:30am SSE 6 7 - - - - - - - 11.6 999.1 2.0
05/09:00am ESE 6 8 - - - - - - Recent precip. 11.5 999.2 1.2
05/08:30am ESE 5 6 - - - - - - - 11.4 999.7 0.8
05/08:00am E 6 7 - - - - - - - 10.8 1000.2 0.6
05/07:30am E 6 7 - - - - - - - 10.5 1000.4 0.6
05/07:00am E 5 7 - - - - - - - 10.1 1000.7 0.6
05/06:30am E 5 7 - - - - - - - 10.0 1001.1 0.6
05/06:00am ENE 4 5 - - - - - - Recent precip. 9.8 1001.5 0.6
05/05:30am N 5 7 - - - - - - - 9.7 1002.2 0.4
05/05:00am N 8 10 - - - - - - - 9.7 1002.3 0.4
05/04:30am N 8 10 - - - - - - - 9.8 1002.6 0.4
05/04:00am N 8 11 - - - - - - - 10.1 1002.9 0.4
05/03:30am N 9 12 - - - - - - - 10.3 1003.4 0.4
05/03:00am N 9 11 - - - - - - - 10.4 1003.8 0.4
05/02:30am N 9 12 - - - - - - - 10.9 1004.4 0.4
05/02:00am NW 18 21 - - - - - - - 11.7 1004.9 0.4
05/01:30am NW 19 23 - - - - - - - 11.9 1005.5 0.4
05/01:00am WNW 19 23 - - - - - - - 11.7 1005.6 0.4
05/12:30am WNW 21 25 - - - - - - - 11.6 1005.6 0.4
05/12:00am WNW 23 29 - - - - - - - 11.5 1005.7 0.4
 
Date/Time
EST
Wind Sea
Height
m
Swell Vis
km
Cloud Weather Temp
°C
Press
MSL
hPa
Rain since
9am
mm
Dir  Spd
kts
Gust
kts
Height
m
Period
s
Dir
04/11:30pm NW 24 31 - - - - - - - 12.1 1006.1 0.4
04/11:00pm NW 25 31 - - - - - - - 12.0 1006.4 0.4
04/10:30pm NW 24 29 - - - - - - - 11.8 1006.5 0.4
04/10:00pm NNW 24 31 - - - - - - - 11.5 1006.7 0.4
04/09:30pm NW 23 28 - - - - - - - 11.4 1006.9 0.4
04/09:00pm NNW 24 31 - - - - - - - 11.2 1007.2 0.4
04/08:49pm NNW 26 32 - - - - - - - 11.2 1007.1 0.4
04/08:39pm NW 24 34 - - - - - - - 11.2 1007.2 0.4
04/08:30pm NNW 27 34 - - - - - - - 11.2 1007.2 0.4
04/08:00pm NW 25 30 - - - - - - - 11.0 1007.6 0.4
04/07:30pm NW 28 34 - - - - - - - 11.1 1007.8 0.4
04/07:00pm NW 24 29 - - - - - - - 11.5 1007.8 0.2
04/06:30pm NW 28 34 - - - - - - - 11.7 1007.8 0.2
04/06:00pm NW 29 36 - - - - - - - 11.3 1007.9 0.2
04/05:30pm NW 27 34 - - - - - - - 10.1 1007.8 0.2
04/05:00pm NW 26 33 - - - - - - - 11.4 1007.7 0.2
04/04:30pm NW 27 33 - - - - - - - 11.2 1007.8 0.2
04/04:00pm NW 27 35 - - - - - - - 11.2 1008.1 0.2
04/03:40pm NW 28 38 - - - - - - - 11.9 1008.1 0.2
04/03:30pm NW 29 35 - - - - - - - 12.1 1008.2 0.2
04/03:00pm NW 30 37 - - - - - - - 12.3 1008.3 0.2
04/02:30pm NW 28 34 - - - - - - - 11.9 1008.3 0.2
04/02:00pm NW 27 35 - - - - - - - 12.7 1008.4 0.2
04/01:30pm NW 29 37 - - - - - - - 12.7 1008.7 0.2
04/01:00pm NW 25 32 - - - - - - - 11.1 1009.1 0.2
04/12:30pm NW 28 35 - - - - - - - 11.4 1009.4 0.0
04/12:00pm NW 28 35 - - - - - - - 12.4 1009.9 0.0
04/11:30am NW 27 33 - - - - - - - 12.1 1010.3 0.0
04/11:00am NW 25 31 - - - - - - - 12.7 1010.4 0.0
04/10:30am NW 23 29 - - - - - - - 12.7 1010.6 0.0
04/10:00am NW 26 32 - - - - - - - 12.4 1010.6 0.0
04/09:30am NW 24 29 - - - - - - - 12.0 1010.8 0.0
04/09:00am NW 25 31 - - - - - - - 11.6 1011.0 1.4
04/08:30am NW 22 29 - - - - - - - 11.5 1011.1 1.4
04/08:00am WNW 23 29 - - - - - - - 11.1 1011.2 1.4
04/07:30am WNW 23 27 - - - - - - - 10.9 1011.1 1.4
04/07:00am WNW 23 27 - - - - - - - 10.8 1011.1 1.4
04/06:30am WNW 26 30 - - - - - - - 10.7 1011.1 1.4
04/06:00am WNW 26 30 - - - - - - - 10.9 1010.9 1.4
04/05:30am WNW 25 30 - - - - - - - 10.5 1010.8 1.4
04/05:02am WNW 23 29 - - - - - - - 9.1 1010.8 1.4
04/05:00am WNW 23 29 - - - - - - - 9.1 1010.7 1.4
04/04:41am WNW 25 39 - - - - - - - 10.6 1010.5 1.2
04/04:30am WNW 25 30 - - - - - - - 10.6 1010.5 1.2
04/04:00am WNW 25 31 - - - - - - - 10.5 1010.1 1.2
04/03:30am WNW 29 33 - - - - - - - 10.2 1009.9 1.2
04/03:26am WNW 28 33 - - - - - - - 10.1 1009.9 1.2
04/03:16am WNW 26 36 - - - - - - - 10.1 1010.0 1.2
04/03:00am WNW 30 37 - - - - - - - 9.1 1010.1 1.2
04/02:48am W 28 34 - - - - - - - 9.9 1010.2 1.2
04/02:38am WNW 27 37 - - - - - - - 10.3 1010.2 1.2
04/02:30am WNW 24 32 - - - - - - - 10.1 1010.2 1.2
04/02:00am WNW 25 28 - - - - - - - 9.9 1010.4 1.2
04/01:41am WNW 27 38 - - - - - - - 10.4 1010.1 1.2
04/01:30am WNW 26 32 - - - - - - - 10.7 1010.0 1.2
04/01:00am WNW 26 33 - - - - - - - 10.7 1010.0 1.2
04/12:30am WNW 28 35 - - - - - - - 10.6 1009.8 1.2
04/12:00am WNW 31 37 - - - - - - - 10.5 1009.7 1.2
 
Date/Time
EST
Wind Sea
Height
m
Swell Vis
km
Cloud Weather Temp
°C
Press
MSL
hPa
Rain since
9am
mm
Dir  Spd
kts
Gust
kts
Height
m
Period
s
Dir
03/11:30pm WNW 33 38 - - - - - - - 10.4 1009.4 1.2
03/11:09pm WNW 31 39 - - - - - - - 10.0 1009.4 1.2
03/11:00pm WNW 30 37 - - - - - - - 9.6 1009.2 1.2
03/10:44pm WNW 33 48 - - - - - - - 10.5 1008.7 1.2
03/10:30pm WNW 31 39 - - - - - - - 10.7 1009.0 1.2
03/10:07pm WNW 32 37 - - - - - - - 10.4 1008.9 1.2
03/10:00pm WNW 31 37 - - - - - - - 10.2 1008.8 1.2
03/09:57pm WNW 32 42 - - - - - - - 10.2 1008.9 1.2
03/09:30pm WNW 31 39 - - - - - - - 9.9 1008.2 1.2
03/09:22pm WNW 32 39 - - - - - - - 9.7 1008.3 1.2
03/09:00pm WNW 30 41 - - - - - - - 10.5 1007.9 1.2
03/08:57pm WNW 30 40 - - - - - - - 10.5 1007.8 1.2
03/08:30pm WNW 34 40 - - - - - - - 10.6 1007.4 1.2
03/08:09pm WNW 33 41 - - - - - - - 10.5 1006.9 1.2
03/08:00pm WNW 30 39 - - - - - - - 10.4 1006.8 1.2
03/07:54pm W 26 36 - - - - - - - 9.9 1006.7 1.2
03/07:52pm W 25 33 - - - - - - - 10.0 1006.8 1.2
03/07:38pm WNW 31 41 - - - - - - - 10.4 1006.7 1.2
03/07:30pm WNW 33 41 - - - - - - - 10.2 1006.4 1.2
03/07:05pm W 33 41 - - - - - - - 9.8 1006.0 1.2
03/07:00pm WNW 34 42 - - - - - - - 9.8 1005.9 1.2
03/06:46pm WNW 36 46 - - - - - - - 9.9 1005.5 1.2
03/06:30pm WNW 37 45 - - - - - - - 10.2 1004.7 1.2
03/06:23pm WNW 37 43 - - - - - - - 10.2 1004.6 1.2
03/06:11pm WNW 33 43 - - - - - - - 10.4 1004.2 1.2
03/06:00pm WNW 34 43 - - - - - - - 10.3 1004.1 1.2
03/05:48pm WNW 35 43 - - - - - - - 10.2 1004.1 1.2
03/05:30pm WNW 37 50 - - - - - - - 8.6 1003.8 1.2
03/05:24pm WNW 35 50 - - - - - - - 10.1 1003.3 1.2
03/05:00pm WNW 39 47 - - - - - - - 10.5 1002.9 1.2
03/04:42pm WNW 38 47 - - - - - - - 10.7 1002.5 1.2
03/04:30pm WNW 39 49 - - - - - - - 11.1 1002.0 1.2
03/04:11pm WNW 39 51 - - - - - - - 11.1 1001.4 1.2
03/04:00pm WNW 40 49 - - - - - - - 11.0 1001.3 1.2
03/03:50pm WNW 39 49 - - - - - - - 11.1 1001.0 1.2
03/03:48pm WNW 39 48 - - - - - - - 11.2 1001.0 1.2
03/03:30pm WNW 41 52 - - - - - - - 11.2 1000.6 1.2
03/03:00pm W 39 49 - - - - - - - 10.8 999.8 1.2
03/02:54pm WNW 37 49 - - - - - - - 10.4 999.6 1.2
03/02:30pm WNW 37 46 - - - - - - - 9.8 999.3 1.2
03/02:00pm WNW 42 53 - - - - - - - 9.6 998.5 1.2
03/01:40pm WNW 45 54 - - - - - - - 8.5 998.4 1.2
03/01:31pm WNW 40 53 - - - - - - - 8.1 998.3 1.0
03/01:30pm WNW 41 61 - - - - - - - 8.1 998.3 1.0
03/01:21pm WNW 40 61 - - - - - - - 8.5 998.1 0.6
03/01:20pm WNW 38 51 - - - - - - - 10.0 997.9 0.4
03/01:00pm WNW 36 46 - - - - - - - 10.5 998.0 0.0
03/12:47pm WNW 39 49 - - - - - - - 11.3 997.6 0.0
03/12:45pm WNW 39 46 - - - - - - - 11.6 997.9 0.0
03/12:30pm WNW 39 48 - - - - - - - 11.7 997.9 0.0
03/12:29pm WNW 38 48 - - - - - - - 11.9 997.9 0.0
03/12:22pm WNW 37 46 - - - - - - - 12.0 997.9 0.0
03/12:12pm WNW 37 46 - - - - - - - 12.2 998.0 0.0
03/12:07pm WNW 36 43 - - - - - - - 12.0 998.1 0.0
03/12:00pm WNW 35 44 - - - - - - - 11.6 998.1 0.0
03/11:56am WNW 34 44 - - - - - - - 12.0 998.2 0.0
03/11:43am WNW 35 43 - - - - - - - 10.7 998.2 0.0
03/11:30am WNW 33 43 - - - - - - - 11.5 998.1 0.0
03/11:28am WNW 33 43 - - - - - - - 11.6 998.1 0.0
03/11:13am WNW 33 41 - - - - - - - 11.7 998.2 0.0
03/11:03am WNW 35 45 - - - - - - - 11.6 998.4 0.0
03/11:00am WNW 37 45 - - - - - - - 11.3 998.4 0.0
03/10:34am WNW 36 43 - - - - - - - 11.6 998.4 0.0
03/10:30am WNW 37 43 - - - - - - - 11.3 998.4 0.0
03/10:04am WNW 36 47 - - - - - - - 10.6 997.6 0.0
03/10:00am WNW 36 44 - - - - - - - 11.1 997.7 0.0
03/09:30am WNW 36 43 - - - - - - - 11.0 997.7 0.0
03/09:29am WNW 36 43 - - - - - - - 10.8 997.7 0.0
03/09:12am WNW 29 42 - - - - - - - 10.8 997.8 0.0
03/09:02am W 29 35 - - - - - - - 10.6 997.9 0.0
03/09:00am W 29 35 - - - - - - - 10.6 997.9 5.2
03/08:52am WNW 30 40 - - - - - - - 10.3 998.0 5.2
03/08:41am WNW 32 39 - - - - - - - 10.8 997.5 5.2
03/08:30am WNW 32 42 - - - - - - - 10.4 997.5 5.2
03/08:00am WNW 29 35 - - - - - - - 10.8 997.3 5.2
03/07:47am W 31 42 - - - - - - - 10.6 997.0 5.2
03/07:42am W 31 37 - - - - - - - 10.6 997.0 5.2
03/07:30am W 32 43 - - - - - - - 10.3 996.7 5.2
03/07:22am WNW 33 43 - - - - - - - 10.8 996.3 5.2
03/07:02am WNW 36 43 - - - - - - - 10.8 996.1 5.2
03/07:00am WNW 37 44 - - - - - - - 10.9 996.0 5.2
03/06:34am W 34 44 - - - - - - - 10.6 995.8 5.2
03/06:30am WNW 36 44 - - - - - - - 10.9 995.7 5.2
03/06:00am WNW 37 45 - - - - - - - 11.4 995.2 5.2
03/05:56am WNW 37 45 - - - - - - - 11.1 995.0 5.2
03/05:44am WNW 33 43 - - - - - - - 11.2 994.9 5.2
03/05:30am WNW 35 43 - - - - - - - 11.2 994.5 5.2
03/05:25am WNW 35 42 - - - - - - - 11.1 994.4 5.2
03/05:15am WNW 33 43 - - - - - - - 10.9 994.2 5.2
03/05:00am WNW 29 34 - - - - - - - 10.6 993.9 5.2
03/04:37am WNW 32 40 - - - - - - - 10.1 993.9 5.2
03/04:30am WNW 32 39 - - - - - - - 10.4 993.8 4.8
03/04:11am WNW 37 47 - - - - - - - 11.5 993.4 4.0
03/04:09am NW 37 45 - - - - - - - 11.6 993.0 4.0
03/04:00am NW 36 45 - - - - - - - 11.6 992.9 4.0
03/03:52am NW 38 49 - - - - - - - 12.1 992.8 4.0
03/03:30am NW 45 55 - - - - - - - 12.2 992.5 4.0
03/03:12am NNW 38 51 - - - - - - - 12.2 992.5 3.8
03/03:11am NNW 38 46 - - - - - - - 12.2 992.5 3.6
03/03:00am NNW 36 46 - - - - - - Recent precip. 12.3 993.0 3.6
03/02:30am NNW 36 48 - - - - - - - 12.3 993.8 3.4
03/02:01am NNW 36 46 - - - - - - - 12.5 994.8 3.4
03/02:00am NNW 37 46 - - - - - - - 12.4 994.8 3.4
03/01:56am NNW 38 47 - - - - - - - 12.6 994.9 3.4
03/01:30am NW 37 47 - - - - - - - 12.3 995.3 3.4
03/01:00am NW 40 53 - - - - - - - 11.9 995.9 3.4
03/12:30am NW 39 48 - - - - - - - 11.9 996.2 1.8
03/12:26am NW 36 46 - - - - - - - 12.1 996.3 1.8
03/12:25am NW 36 44 - - - - - - - 12.1 996.4 1.8
03/12:00am NW 40 50 - - - - - - - 12.1 996.7 1.8
 
Date/Time
EST
Wind Sea
Height
m
Swell Vis
km
Cloud Weather Temp
°C
Press
MSL
hPa
Rain since
9am
mm
Dir  Spd
kts
Gust
kts
Height
m
Period
s
Dir
02/11:30pm NW 38 48 - - - - - - - 12.2 997.4 1.8
02/11:00pm NNW 36 45 - - - - - - - 12.3 997.9 1.8
02/10:39pm NNW 33 43 - - - - - - - 12.3 998.4 1.8
02/10:30pm NW 34 42 - - - - - - - 12.2 998.7 1.8
02/10:14pm NNW 34 42 - - - - - - - 12.1 998.9 1.8
02/10:04pm NNW 36 46 - - - - - - - 12.1 999.0 1.8
02/10:00pm NNW 37 46 - - - - - - - 12.0 999.0 1.8
02/09:51pm NW 36 45 - - - - - - - 12.2 999.1 1.8
02/09:39pm NW 36 46 - - - - - - - 12.2 999.2 1.8
02/09:34pm NW 37 46 - - - - - - - 12.4 999.3 1.8
02/09:30pm NW 37 45 - - - - - - - 12.5 999.3 1.8
02/09:23pm NW 35 45 - - - - - - - 12.5 999.3 1.8
02/09:13pm NW 37 45 - - - - - - - 12.6 999.5 1.8
02/09:00pm NW 35 46 - - - - - - - 12.4 999.7 1.8
02/08:47pm NW 33 43 - - - - - - - 12.3 999.9 1.8
02/08:40pm NW 34 41 - - - - - - - 12.2 1000.0 1.8
02/08:30pm NNW 33 43 - - - - - - - 12.2 1000.0 1.8
02/08:28pm NNW 33 43 - - - - - - - 12.4 1000.0 1.8
02/08:00pm NW 33 39 - - - - - - - 12.1 1000.3 1.8
02/07:54pm NW 32 41 - - - - - - - 12.1 1000.3 1.8
02/07:38pm NW 32 41 - - - - - - - 11.9 1000.6 1.8
02/07:30pm NW 34 42 - - - - - - - 11.8 1000.7 1.8
02/07:29pm NW 34 42 - - - - - - - 11.9 1000.7 1.8
02/07:18pm NW 32 42 - - - - - - - 11.9 1000.8 1.8
02/07:14pm NW 33 41 - - - - - - - 12.0 1000.7 1.8
02/07:03pm NW 33 43 - - - - - - - 12.4 1000.8 1.8
02/07:00pm NW 35 43 - - - - - - - 12.4 1000.8 1.8
02/06:41pm NW 33 41 - - - - - - - 12.2 1001.0 1.8
02/06:30pm NW 33 43 - - - - - - - 12.2 1001.2 1.8
02/06:24pm NW 33 43 - - - - - - - 12.3 1001.3 1.8
02/06:00pm NW 35 42 - - - - - - - 11.9 1001.3 1.8
02/05:30pm NW 31 39 - - - - - - - 12.2 1001.3 1.8
02/05:00pm NW 33 41 - - - - - - - 12.3 1001.6 1.8
02/04:35pm NW 34 43 - - - - - - - 12.4 1001.8 1.8
02/04:30pm NW 35 43 - - - - - - - 12.2 1001.8 1.8
02/04:18pm NW 33 44 - - - - - - - 12.0 1001.9 1.8
02/04:00pm NW 33 40 - - - - - - - 12.2 1002.1 1.8
02/03:30pm NW 32 40 - - - - - - - 12.0 1002.4 1.8
02/03:00pm NW 31 39 - - - - - - - 12.2 1002.6 1.8
02/02:50pm NW 31 39 - - - - - - - 12.1 1002.7 1.8

Other formats

Comma delimited format used in spreadsheet applications
http://www.bom.gov.au/fwo/IDT60701/IDT60701.95961.axf

JavaScript Object Notation format (JSON) in row-major order
http://www.bom.gov.au/fwo/IDT60701/IDT60701.95961.json

Data quality

Most of these data are generated automatically and are frequently updated. Quality checks on data are not normally performed. It is possible for incorrect values to appear. Refer to information at About Latest Weather Observations and please check the disclaimer before using these data.